シャージャラル国際空港(ダッカ)の過去48時間の天気

シャージャラル国際空港(ダッカ) (Kurmitola, Dia)

現在時刻: 1/20 08:25 +06 (1/20 02:25 UTC) 以下の時間は現地時間です。

過去48時間のMETAR気象情報
時間 風向 風速(m/s) 視程 気温(℃) 湿度(%) 気圧(hPa) 天気現象
20 08:00 西北西 2 1000m 17 83 1017 もや
20 07:30 西北西 3 1200m 16 82 1017 もや
20 07:00 西北西 2 1200m 16 82 1016 もや
20 06:30 西北西 2 1500m 16 82 1016 もや
20 06:00 西 2 1500m 16 82 1016 もや
20 05:30 北西 2 1500m 17 77 1015 もや
20 05:00 西北西 2 1500m 17 77 1015 もや
20 04:30 西北西 2 1800m 17 77 1015 もや
20 04:00 西北西 3 1800m 17 77 1015 もや
20 03:30 北西 2 2000m 18 73 1015 煙霧
20 03:00 北西 2 2000m 18 73 1015 煙霧
20 02:30 北北西 2 2000m 18 73 1015 煙霧
20 02:00 北北西 3 2400m 18 73 1016 煙霧
20 01:30 北北西 2 2400m 18 73 1016 煙霧
20 01:00 北西 2 2400m 18 73 1016 煙霧
20 00:30 北西 2 2400m 19 68 1016 煙霧
20 00:00 北西 2 2400m 19 68 1016 煙霧
19 23:30 西北西 2 2400m 19 68 1016 煙霧
19 23:00 西北西 2 2400m 20 68 1016 煙霧
19 22:30 西北西 2 2400m 20 68 1016 煙霧
19 22:00 北西 2 2400m 20 68 1016 煙霧
19 21:30 北西 2 2400m 20 68 1016 煙霧
19 21:00 西北西 2 2400m 20 68 1016 煙霧
19 20:30 西北西 2 2400m 21 69 1016 煙霧
19 20:00 西北西 2 2400m 21 69 1015 煙霧
19 19:30 西 2 2400m 21 64 1015 煙霧
19 19:00 西北西 2 2500m 21 60 1014 煙霧
19 18:30 西北西 2 2500m 22 60 1014 煙霧
19 18:00 西北西 2 2500m 22 57 1014 煙霧
19 17:30 西北西 2 3100m 23 50 1014 煙霧
19 17:00 西北西 3 3200m 24 47 1014 煙霧
19 16:30 北西 3 3500m 24 41 1013 煙霧
19 16:00 西北西 2 3500m 25 41 1013 煙霧
19 15:30 西北西 3 3500m 25 - 1014 煙霧
19 15:00 - - 3500m 25 41 1014 煙霧
19 14:30 西 3 3500m 25 44 1014 煙霧
19 14:00 北西 3 3200m 25 50 1014 煙霧
19 13:30 西北西 3 3000m 25 54 1015 煙霧
19 13:00 西 3 2500m 24 61 1015 煙霧
19 12:30 西 3 2300m 23 65 1016 煙霧
19 12:00 西 3 2000m 22 69 1017 煙霧
19 11:30 北北東 2 1800m 20 73 1017 もや
19 11:00 静穏 0 1500m 19 78 1018 もや
19 10:30 静穏 0 1200m 18 83 1018 もや
19 10:00 静穏 0 1200m 18 83 1018 もや
19 09:30 静穏 0 1000m 17 88 1018 もや
19 09:00 静穏 0 800m 17 88 1018
19 08:30 静穏 0 800m 17 88 1017
19 08:00 静穏 0 500m 16 94 1017
19 07:30 静穏 0 500m 15 94 1016
19 07:00 静穏 0 500m 15 94 1016
19 06:30 静穏 0 600m 15 94 1016
19 06:00 西北西 2 700m 15 94 1016
19 05:30 西北西 2 800m 16 94 1015
19 05:00 西北西 2 800m 16 94 1015
19 04:30 西 2 1100m 16 88 1015 もや
19 04:00 静穏 0 1300m 16 88 1015 もや
19 03:30 静穏 0 1500m 17 83 1015 もや
19 03:00 西北西 2 1500m 17 83 1015 もや
19 02:30 西北西 2 1600m 17 83 1015 もや
19 02:00 静穏 0 1800m 17 83 1015 もや
19 01:30 西北西 2 2100m 17 83 1015 もや
19 01:00 西 2 2300m 18 83 1015 もや
19 00:30 西北西 2 2500m 18 77 1015 もや
19 00:00 西北西 2 2500m 18 77 1015 もや
18 23:30 西北西 2 2500m 19 78 1015 もや
18 23:00 静穏 0 2700m 19 78 1015 もや
18 22:30 静穏 0 3200m 19 73 1015 煙霧
18 22:00 静穏 0 3200m 19 68 1015 煙霧
18 21:30 静穏 0 3500m 20 64 1015 煙霧
18 21:00 静穏 0 3500m 20 60 1015 煙霧
18 20:30 静穏 0 3500m 20 60 1014 煙霧
18 20:00 静穏 0 3500m 21 56 1014 煙霧
18 19:30 西 2 3500m 21 56 1014 煙霧
18 19:00 西 2 3500m 22 57 1013 煙霧
18 18:30 静穏 0 3500m 23 53 1013 煙霧
18 18:00 西 3 3500m 23 53 1013 煙霧
18 17:30 西 2 3500m 23 47 1013 煙霧
18 17:00 西 2 3500m 24 44 1012 煙霧
18 16:30 西北西 3 3500m 24 44 1012 煙霧
18 16:00 北西 3 3500m 25 41 1012 煙霧
18 15:30 西 4 3500m 25 39 1012 煙霧
18 15:00 西 4 3500m 26 37 1012 煙霧
18 14:30 西 3 3200m 27 39 1012 煙霧
18 14:00 西南西 2 3200m 27 42 1013 煙霧
18 13:30 北西 3 3200m 26 48 1013 煙霧
18 13:00 北西 3 3200m 25 54 1014 煙霧
18 12:30 西北西 3 3000m 24 57 1015 煙霧
18 12:00 西北西 3 2500m 24 65 1015 煙霧
18 11:30 西北西 3 2000m 22 73 1016 煙霧
18 11:00 北北西 2 1500m 21 78 1016 もや
18 10:30 北北西 2 1200m 20 78 1016 もや
18 10:00 西北西 2 1200m 19 78 1017 もや
18 09:30 静穏 0 1000m 19 78 1017 もや
18 09:00 静穏 0 1000m 18 83 1017 もや
18 08:30 静穏 0 1000m 18 83 1016 もや
VGHS 200200Z 29003KT 1000 BR NSC 17/14 Q1017 BECMG S/VIS 1200M
VGHS 200130Z 30005KT 1200 BR NSC 16/13 Q1017 TEMPO S/VIS 0800M
VGHS 200100Z 29003KT 1200 BR NSC 16/13 Q1016 TEMPO S/VIS 0800M
VGHS 200030Z 30003KT 1500 BR NSC 16/13 Q1016 TEMPO S/VIS 1000M
VGHS 200000Z 27003KT 1500 BR NSC 16/13 Q1016 TEMPO S/VIS 1000M
VGHS 192330Z 31004KT 1500 BR NSC 17/13 Q1015 TEMPO S/VIS 1000M
VGHS 192300Z 29003KT 1500 BR NSC 17/13 Q1015 TEMPO S/VIS 1000M
VGHS 192230Z 30003KT 1800 BR NSC 17/13 Q1015 TEMPO S/VIS 1500M
VGHS 192200Z 30005KT 1800 BR NSC 17/13 Q1015 TE15O S/VIS 1500M
VGHS 192130Z 31004KT 2000 HZ NSC 18/13 Q1015 TE15O S/VIS 1500M
VGHS 192100Z 32004KT 2000 HZ NSC 18/13 Q1015 TE15O S/VIS 1500M
VGHS 192030Z 33004KT 2000 HZ NSC 18/13 Q1015 TE15O S/VIS 1500M
VGHS 192000Z 34005KT 2400 HZ NSC 18/13 Q1016 TEMPO S/VIS 2000M
VGHS 191930Z 33004KT 2400 HZ NSC 18/13 Q1016 TEMPO S/VIS 2000M
VGHS 191900Z 32004KT 2400 HZ NSC 18/13 Q1016 TEMPO S/VIS 2000M
VGHS 191830Z 32003KT 2400 HZ NSC 19/13 Q1016 TEMPO S/VIS 2000M
VGHS 191800Z 31003KT 2400 HZ NSC 19/13 Q1016 TEMPO S/VIS 2000M
VGHS 191730Z 30004KT 2400 HZ NSC 19/13 Q1016 NOSIG
VGHS 191700Z 29004KT 2400 HZ NSC 20/14 Q1016 NOSIG
VGHS 191630Z 30004KT 2400 HZ NSC 20/14 Q1016 NOSIG
VGHS 191600Z 31004KT 2400 HZ NSC 20/14 Q1016 NOSIG
VGHS 191530Z 32004KT 2400 HZ NSC 20/14 Q1016 NOSIG
VGHS 191500Z 30003KT 2400 HZ NSC 20/14 Q1016 NOSIG
VGHS 191430Z 30004KT 2400 HZ NSC 21/15 Q1016 NOSIG
VGHS 191400Z 29004KT 2400 HZ NSC 21/15 Q1015 TEMPO S/VIS 2000M
VGHS 191330Z 28003KT 2400 HZ NSC 21/14 Q1015 TEMPO S/VIS 2000M
VGHS 191300Z 30003KT 2500 HZ NSC 21/13 Q1014 TEMPO S/VIS 2000M
VGHS 191230Z 29004KT 2500 HZ NSC 22/14 Q1014 TEMPO S/VIS 2000M
VGHS 191200Z 29004KT 2500 HZ NSC 22/13 Q1014 TEMPO S/VIS 2000M
VGHS 191130Z 29004KT 3100 HZ NSC 23/12 Q1014 TEMPO S/VIS 2500M
VGHS 191100Z 29006KT 3200 HZ NSC 24/12 Q1014 NOSIG
VGHS 191030Z 31006KT 3500 HZ NSC 24/10 Q1013 NOSIG
VGHS 191000Z 29004KT 3500 HZ FEW015 25/11 Q1013 NOSIG
VGHS 190930Z 30006KT 3500 HZ FEW015 25/1 Q1014 NOSIG
VGHS 190900Z 97006KT 3500 HZ FEW015 25/11 Q1014 NOSIG
VGHS 190830Z 27005KT 3500 HZ FEW015 25/12 Q1014 NOSIG
VGHS 190800Z 31005KT 3200 HZ NSC 25/14 Q1014 NOSIG
VGHS 190730Z 29005KT 3000 HZ NSC 25/15 Q1015 BECMG S/VIS 3500M
VGHS 190700Z 27006KT 2500 HZ NSC 24/16 Q1015 BECMG S/VIS 3000M
VGHS 190630Z 28006KT 2300 HZ NSC 23/16 Q1016 BECMG S/VIS 2500M
VGHS 190600Z 28005KT 2000 HZ NSC 22/16 Q1017 BECMG S/VIS 2500M
VGHS 190530Z 03004KT 1800 BR NSC 20/15 Q1017 BECMG S/VIS 2000M
VGHS 190500Z 00000KT 1500 BR NSC 19/15 Q1018 BECMG S/VIS 2000M
VGHS 190430Z 00000KT 1200 BR NSC 18/15 Q1018 BECMG S/VIS 1500M
VGHS 190400Z 00000KT 1200 BR NSC 18/15 Q1018 BECMG S/VIS 1500M
VGHS 190330Z 00000KT 1000 BR NSC 17/15 Q1018 BECMG S/VIS 1500M
VGHS 190300Z 00000KT 0800 FG BKN005 17/15 Q1018 BECMG S/VIS 1200M
VGHS 190230Z 00000KT 0800 FG BKN005 17/15 Q1017 BECMG S/VIS 1200M
VGHS 190200Z 00000KT 0500 FG BKN005 16/15 Q1017 BECMG S/VIS 0800M
VGHS 190130Z 00000KT 0500 FG BKN005 15/14 Q1016 TEMPO S/VIS 0400M
VGHS 190100Z 00000KT 0500 FG BKN005 15/14 Q1016 TEMPO S/VIS 0400M
VGHS 190030Z 00000KT 0600 FG BKN005 15/14 Q1016 TEMPO S/VIS 0400M
VGHS 190000Z 30003KT 0700 FG BKN005 15/14 Q1016 TEMPO S/VIS 0400M
VGHS 182330Z 29003KT 0800 FG BKN005 16/15 Q1015 TEMPO S/VIS 0400M
VGHS 182300Z 30003KT 0800 FG NSC 16/15 Q1015 TEMPO S/VIS 0400M
VGHS 182230Z 28003KT 1100 BR NSC 16/14 Q1015 TEMPO S/VIS 0700M
VGHS 182200Z 00000KT 1300 BR NSC 16/14 Q1015 TEMPO S/VIS 0800M
VGHS 182130Z 00000KT 1500 BR NSC 17/14 Q1015 TEMPO S/VIS 0900M
VGHS 182100Z 30003KT 1500 BR NSC 17/14 Q1015 TEMPO S/VIS 0900M
VGHS 182030Z 30004KT 1600 BR NSC 17/14 Q1015 TEMPO S/VIS 1000M
VGHS 182000Z 00000KT 1800 BR NSC 17/14 Q1015 TEMPO S/VIS 1300M
VGHS 181930Z 30004KT 2100 BR NSC 17/14 Q1015 TEMPO S/VIS 1600M
VGHS 181900Z 28003KT 2300 BR NSC 18/15 Q1015 TEMPO S/VIS 1800M
VGHS 181830Z 30003KT 2500 BR NSC 18/14 Q1015 TEMPO S/VIS 2000M
VGHS 181800Z 29003KT 2500 BR NSC 18/14 Q1015 TEMPO S/VIS 2000M
VGHS 181730Z 30003KT 2500 BR NSC 19/15 Q1015 TEMPO S/VIS 2000M
VGHS 181700Z 00000KT 2700 BR NSC 19/15 Q1015 TEMPO S/VIS 2200M
VGHS 181630Z 00000KT 3200 HZ NSC 19/14 Q1015 TEMPO S/VIS 2700M
VGHS 181600Z 00000KT 3200 HZ NSC 19/13 Q1015 TEMPO S/VIS 2700M
VGHS 181530Z 00000KT 3500 HZ NSC 20/13 Q1015 NOSIG
VGHS 181500Z 00000KT 3500 HZ NSC 20/12 Q1015 NOSIG
VGHS 181430Z 00000KT 3500 HZ NSC 20/12 Q1014 NOSIG
VGHS 181400Z 00000KT 3500 HZ NSC 21/12 Q1014 NOSIG
VGHS 181330Z 28003KT 3500 HZ NSC 21/12 Q1014 NOSIG
VGHS 181300Z 28003KT 3500 HZ NSC 22/13 Q1013 NOSIG
VGHS 181230Z 00000KT 3500 HZ NSC 23/13 Q1013 NOSIG
VGHS 181200Z 27006KT 3500 HZ NSC 23/13 Q1013 NOSIG
VGHS 181130Z 28004KT 3500 HZ NSC 23/11 Q1013 NOSIG
VGHS 181100Z 27004KT 3500 HZ NSC 24/11 Q1012 NOSIG
VGHS 181030Z 29006KT 3500 HZ NSC 24/11 Q1012 NOSIG
VGHS 181000Z 31006KT 3500 HZ NSC 25/11 Q1012 NOSIG
VGHS 180930Z 28007KT 3500 HZ NSC 25/10 Q1012 NOSIG
VGHS 180900Z 27008KT 3500 HZ NSC 26/10 Q1012 NOSIG
VGHS 180830Z 28005KT 3200 HZ NSC 27/12 Q1012 NOSIG
VGHS 180800Z 25004KT 3200 HZ NSC 27/13 Q1013 NOSIG
VGHS 180730Z 32006KT 3200 HZ NSC 26/14 Q1013 NOSIG
VGHS 180700Z 31006KT 3200 HZ NSC 25/15 Q1014 NOSIG
VGHS 180630Z 30006KT 3000 HZ NSC 24/15 Q1015 BECMG S/VIS 3500M
VGHS 180600Z 30005KT 2500 HZ NSC 24/17 Q1015 BECMG S/VIS 3000M
VGHS 180530Z 30005KT 2000 HZ NSC 22/17 Q1016 BECMG S/VIS 2500M
VGHS 180500Z 34004KT 1500 BR NSC 21/17 Q1016 BECMG S/VIS 2000M
VGHS 180430Z 34003KT 1200 BR NSC 20/16 Q1016 BECMG COR S/VIS 1600M
VGHS 180400Z 30003KT 1200 BR NSC 19/15 Q1017 BECMG S/VIS 1500M
VGHS 180330Z 00000KT 1000 BR NSC 19/15 Q1017 BECMG S/VIS 1500M
VGHS 180300Z 00000KT 1000 BR NSC 18/15 Q1017 BECMG S/VIS 1500M
VGHS 180230Z 00000KT 1000 BR NSC 18/15 Q1016 NOSIG